sensor_id;sensor_type;location;lat;lon;timestamp;pressure;altitude;pressure_sealevel;temperature;humidity
9893;BME280;4985;49.092;8.542;2024-03-29T00:00:25;97544.19;;;17.15;48.93
9893;BME280;4985;49.092;8.542;2024-03-29T00:02:50;97550.56;;;17.14;49.10
9893;BME280;4985;49.092;8.542;2024-03-29T00:05:16;97541.53;;;17.15;49.28
9893;BME280;4985;49.092;8.542;2024-03-29T00:07:41;97532.75;;;17.14;49.22
9893;BME280;4985;49.092;8.542;2024-03-29T00:10:06;97539.94;;;17.14;49.01
9893;BME280;4985;49.092;8.542;2024-03-29T00:12:32;97526.63;;;17.14;49.10
9893;BME280;4985;49.092;8.542;2024-03-29T00:14:57;97517.84;;;17.13;49.00
9893;BME280;4985;49.092;8.542;2024-03-29T00:17:22;97510.69;;;17.14;49.05
9893;BME280;4985;49.092;8.542;2024-03-29T00:19:48;97517.06;;;17.13;48.91
9893;BME280;4985;49.092;8.542;2024-03-29T00:22:13;97509.88;;;17.13;49.07
9893;BME280;4985;49.092;8.542;2024-03-29T00:24:38;97487.81;;;17.13;48.92
9893;BME280;4985;49.092;8.542;2024-03-29T00:27:04;97477.19;;;17.13;49.00
9893;BME280;4985;49.092;8.542;2024-03-29T00:29:29;97490.72;;;17.11;49.28
9893;BME280;4985;49.092;8.542;2024-03-29T00:31:55;97478.22;;;17.12;49.03
9893;BME280;4985;49.092;8.542;2024-03-29T00:34:20;97464.94;;;17.12;49.03
9893;BME280;4985;49.092;8.542;2024-03-29T00:36:46;97486.22;;;17.12;48.95
9893;BME280;4985;49.092;8.542;2024-03-29T00:39:11;97485.41;;;17.11;49.07
9893;BME280;4985;49.092;8.542;2024-03-29T00:41:37;97484.59;;;17.11;49.12
9893;BME280;4985;49.092;8.542;2024-03-29T00:44:03;97489.91;;;17.11;49.31
9893;BME280;4985;49.092;8.542;2024-03-29T00:46:28;97493.13;;;17.13;49.04
9893;BME280;4985;49.092;8.542;2024-03-29T00:48:54;97491.53;;;17.12;49.26
9893;BME280;4985;49.092;8.542;2024-03-29T00:51:19;97474.78;;;17.11;48.98
9893;BME280;4985;49.092;8.542;2024-03-29T00:53:44;97466.00;;;17.11;49.24
9893;BME280;4985;49.092;8.542;2024-03-29T00:56:10;97455.38;;;17.11;48.88
9893;BME280;4985;49.092;8.542;2024-03-29T00:58:35;97439.41;;;17.11;49.14
9893;BME280;4985;49.092;8.542;2024-03-29T01:01:00;97442.88;;;17.11;49.24
9893;BME280;4985;49.092;8.542;2024-03-29T01:03:26;97442.88;;;17.11;49.09
9893;BME280;4985;49.092;8.542;2024-03-29T01:05:54;97435.13;;;17.10;49.16
9893;BME280;4985;49.092;8.542;2024-03-29T01:08:19;97465.19;;;17.10;49.26
9893;BME280;4985;49.092;8.542;2024-03-29T01:10:45;97468.66;;;17.11;49.04
9893;BME280;4985;49.092;8.542;2024-03-29T01:13:10;97464.38;;;17.10;48.92
9893;BME280;4985;49.092;8.542;2024-03-29T01:15:35;97464.38;;;17.10;49.30
9893;BME280;4985;49.092;8.542;2024-03-29T01:18:01;97470.50;;;17.10;49.35
9893;BME280;4985;49.092;8.542;2024-03-29T01:20:26;97476.84;;;17.09;48.95
9893;BME280;4985;49.092;8.542;2024-03-29T01:22:51;97468.06;;;17.09;49.21
9893;BME280;4985;49.092;8.542;2024-03-29T01:25:17;97468.88;;;17.09;49.40
9893;BME280;4985;49.092;8.542;2024-03-29T01:27:43;97450.28;;;17.09;49.00
9893;BME280;4985;49.092;8.542;2024-03-29T01:30:09;97445.75;;;17.10;49.33
9893;BME280;4985;49.092;8.542;2024-03-29T01:32:34;97428.78;;;17.11;49.10
9893;BME280;4985;49.092;8.542;2024-03-29T01:35:00;97427.16;;;17.10;48.98
9893;BME280;4985;49.092;8.542;2024-03-29T01:37:25;97414.91;;;17.09;49.04
9893;BME280;4985;49.092;8.542;2024-03-29T01:39:51;97422.88;;;17.09;49.24
9893;BME280;4985;49.092;8.542;2024-03-29T01:42:17;97418.63;;;17.08;49.08
9893;BME280;4985;49.092;8.542;2024-03-29T01:44:42;97430.31;;;17.07;48.99
9893;BME280;4985;49.092;8.542;2024-03-29T01:47:08;97429.50;;;17.06;49.11
9893;BME280;4985;49.092;8.542;2024-03-29T01:49:33;97433.78;;;17.07;49.04
9893;BME280;4985;49.092;8.542;2024-03-29T01:51:59;97432.97;;;17.07;49.34
9893;BME280;4985;49.092;8.542;2024-03-29T01:54:25;97423.41;;;17.06;48.99
9893;BME280;4985;49.092;8.542;2024-03-29T01:56:50;97431.38;;;17.06;48.97
9893;BME280;4985;49.092;8.542;2024-03-29T01:59:17;97425.81;;;17.07;49.25
9893;BME280;4985;49.092;8.542;2024-03-29T02:01:45;97428.72;;;17.06;49.52
9893;BME280;4985;49.092;8.542;2024-03-29T02:04:10;97428.72;;;17.06;49.23
9893;BME280;4985;49.092;8.542;2024-03-29T02:06:37;97432.16;;;17.06;49.21
9893;BME280;4985;49.092;8.542;2024-03-29T02:09:03;97430.31;;;17.07;49.45
9893;BME280;4985;49.092;8.542;2024-03-29T02:11:29;97422.34;;;17.07;49.13
9893;BME280;4985;49.092;8.542;2024-03-29T02:13:54;97435.63;;;17.07;49.41
9893;BME280;4985;49.092;8.542;2024-03-29T02:16:20;97422.34;;;17.07;49.34
9893;BME280;4985;49.092;8.542;2024-03-29T02:18:45;97422.34;;;17.07;49.03
9893;BME280;4985;49.092;8.542;2024-03-29T02:21:11;97430.56;;;17.05;49.05
9893;BME280;4985;49.092;8.542;2024-03-29T02:23:37;97434.03;;;17.06;49.06
9893;BME280;4985;49.092;8.542;2024-03-29T02:26:05;97435.09;;;17.05;49.44
9893;BME280;4985;49.092;8.542;2024-03-29T02:28:31;97432.44;;;17.05;48.87
9893;BME280;4985;49.092;8.542;2024-03-29T02:30:56;97427.09;;;17.05;49.23
9893;BME280;4985;49.092;8.542;2024-03-29T02:33:21;97427.09;;;17.05;49.14
9893;BME280;4985;49.092;8.542;2024-03-29T02:35:47;97413.00;;;17.04;49.10
9893;BME280;4985;49.092;8.542;2024-03-29T02:38:13;97414.88;;;17.04;49.01
9893;BME280;4985;49.092;8.542;2024-03-29T02:40:38;97421.78;;;17.05;49.10
9893;BME280;4985;49.092;8.542;2024-03-29T02:43:03;97421.78;;;17.05;49.35
9893;BME280;4985;49.092;8.542;2024-03-29T02:45:29;97430.81;;;17.04;49.42
9893;BME280;4985;49.092;8.542;2024-03-29T02:47:54;97436.94;;;17.04;48.94
9893;BME280;4985;49.092;8.542;2024-03-29T02:50:19;97429.22;;;17.03;49.19
9893;BME280;4985;49.092;8.542;2024-03-29T02:52:45;97428.16;;;17.04;49.36
9893;BME280;4985;49.092;8.542;2024-03-29T02:55:10;97440.66;;;17.03;49.00
9893;BME280;4985;49.092;8.542;2024-03-29T02:57:37;97452.09;;;17.04;49.32
9893;BME280;4985;49.092;8.542;2024-03-29T03:00:06;97442.50;;;17.03;49.03
9893;BME280;4985;49.092;8.542;2024-03-29T03:02:32;97438.25;;;17.02;49.32
9893;BME280;4985;49.092;8.542;2024-03-29T03:04:57;97444.38;;;17.02;49.17
9893;BME280;4985;49.092;8.542;2024-03-29T03:07:24;97445.16;;;17.03;49.19
9893;BME280;4985;49.092;8.542;2024-03-29T03:10:08;97446.22;;;17.02;49.18
9893;BME280;4985;49.092;8.542;2024-03-29T03:12:52;97448.06;;;17.01;49.47
9893;BME280;4985;49.092;8.542;2024-03-29T03:15:17;97449.94;;;17.01;49.46
9893;BME280;4985;49.092;8.542;2024-03-29T03:17:42;97466.69;;;17.01;49.01
9893;BME280;4985;49.092;8.542;2024-03-29T03:20:08;97490.59;;;17.01;48.92
9893;BME280;4985;49.092;8.542;2024-03-29T03:22:34;97502.03;;;17.02;48.49
9893;BME280;4985;49.092;8.542;2024-03-29T03:24:59;97509.47;;;17.00;48.88
9893;BME280;4985;49.092;8.542;2024-03-29T03:27:25;97487.94;;;17.01;48.67
9893;BME280;4985;49.092;8.542;2024-03-29T03:29:50;97501.22;;;17.01;48.71
9893;BME280;4985;49.092;8.542;2024-03-29T03:32:16;97478.13;;;17.02;48.74
9893;BME280;4985;49.092;8.542;2024-03-29T03:34:41;97478.91;;;17.02;48.94
9893;BME280;4985;49.092;8.542;2024-03-29T03:37:07;97475.47;;;17.02;48.90
9893;BME280;4985;49.092;8.542;2024-03-29T03:39:32;97464.81;;;17.02;48.96
9893;BME280;4985;49.092;8.542;2024-03-29T03:41:57;97458.72;;;17.01;48.94
9893;BME280;4985;49.092;8.542;2024-03-29T03:44:22;97459.50;;;17.02;49.25
9893;BME280;4985;49.092;8.542;2024-03-29T03:46:50;97443.56;;;17.02;49.21
9893;BME280;4985;49.092;8.542;2024-03-29T03:49:16;97424.97;;;17.02;49.16
9893;BME280;4985;49.092;8.542;2024-03-29T03:51:41;97431.31;;;17.01;48.73
9893;BME280;4985;49.092;8.542;2024-03-29T03:54:07;97420.69;;;17.01;49.04
9893;BME280;4985;49.092;8.542;2024-03-29T03:56:32;97424.97;;;17.02;48.82
9893;BME280;4985;49.092;8.542;2024-03-29T03:58:58;97415.38;;;17.01;48.98
9893;BME280;4985;49.092;8.542;2024-03-29T04:01:23;97409.25;;;17.00;48.75
9893;BME280;4985;49.092;8.542;2024-03-29T04:03:48;97419.09;;;17.00;48.66
9893;BME280;4985;49.092;8.542;2024-03-29T04:06:14;97419.09;;;17.00;48.74
9893;BME280;4985;49.092;8.542;2024-03-29T04:08:39;97415.38;;;17.01;48.54
9893;BME280;4985;49.092;8.542;2024-03-29T04:11:04;97415.38;;;17.01;48.80
9893;BME280;4985;49.092;8.542;2024-03-29T04:13:30;97407.41;;;17.01;48.76
9893;BME280;4985;49.092;8.542;2024-03-29T04:16:05;97400.22;;;17.01;49.10
9893;BME280;4985;49.092;8.542;2024-03-29T04:18:31;97383.47;;;17.01;48.79
9893;BME280;4985;49.092;8.542;2024-03-29T04:20:57;97380.81;;;17.01;48.87
9893;BME280;4985;49.092;8.542;2024-03-29T04:23:23;97392.50;;;17.00;49.16
9893;BME280;4985;49.092;8.542;2024-03-29T04:25:58;97394.13;;;17.01;49.12
9893;BME280;4985;49.092;8.542;2024-03-29T04:28:25;97407.66;;;16.99;49.13
9893;BME280;4985;49.092;8.542;2024-03-29T04:31:00;97436.66;;;17.01;48.82
9893;BME280;4985;49.092;8.542;2024-03-29T04:33:26;97456.31;;;17.00;49.08
9893;BME280;4985;49.092;8.542;2024-03-29T04:38:19;97447.53;;;16.99;48.74
9893;BME280;4985;49.092;8.542;2024-03-29T04:40:44;97451.78;;;17.00;48.76
9893;BME280;4985;49.092;8.542;2024-03-29T04:43:09;97441.38;;;16.99;48.97
9893;BME280;4985;49.092;8.542;2024-03-29T04:45:34;97428.94;;;16.99;48.94
9893;BME280;4985;49.092;8.542;2024-03-29T04:48:00;97433.41;;;16.99;49.11
9893;BME280;4985;49.092;8.542;2024-03-29T04:50:25;97412.16;;;16.99;48.98
9893;BME280;4985;49.092;8.542;2024-03-29T04:52:50;97401.50;;;16.99;49.12
9893;BME280;4985;49.092;8.542;2024-03-29T04:55:16;97403.16;;;17.00;49.19
9893;BME280;4985;49.092;8.542;2024-03-29T04:57:41;97393.53;;;16.99;48.86
9893;BME280;4985;49.092;8.542;2024-03-29T05:00:07;97397.25;;;16.98;49.03
9893;BME280;4985;49.092;8.542;2024-03-29T05:02:33;97384.75;;;16.98;49.12
9893;BME280;4985;49.092;8.542;2024-03-29T05:04:58;97389.28;;;16.98;49.26
9893;BME280;4985;49.092;8.542;2024-03-29T05:07:23;97396.19;;;16.99;48.87
9893;BME280;4985;49.092;8.542;2024-03-29T05:09:49;97396.19;;;16.99;48.98
9893;BME280;4985;49.092;8.542;2024-03-29T05:12:14;97390.34;;;16.97;48.70
9893;BME280;4985;49.092;8.542;2024-03-29T05:14:39;97393.78;;;16.97;48.99
9893;BME280;4985;49.092;8.542;2024-03-29T05:17:05;97388.47;;;16.97;49.15
9893;BME280;4985;49.092;8.542;2024-03-29T05:19:30;97385.03;;;16.97;48.99
9893;BME280;4985;49.092;8.542;2024-03-29T05:21:55;97404.44;;;16.97;48.69
9893;BME280;4985;49.092;8.542;2024-03-29T05:24:21;97414.25;;;16.97;49.10
9893;BME280;4985;49.092;8.542;2024-03-29T05:26:46;97393.78;;;16.97;49.17
9893;BME280;4985;49.092;8.542;2024-03-29T05:29:11;97409.75;;;16.97;49.06
9893;BME280;4985;49.092;8.542;2024-03-29T05:31:37;97408.13;;;16.96;48.80
9893;BME280;4985;49.092;8.542;2024-03-29T05:34:03;97399.91;;;16.98;48.93
9893;BME280;4985;49.092;8.542;2024-03-29T05:36:28;97407.34;;;16.96;48.92
9893;BME280;4985;49.092;8.542;2024-03-29T05:38:53;97404.44;;;16.97;48.91
9893;BME280;4985;49.092;8.542;2024-03-29T05:41:19;97415.06;;;16.97;48.88
9893;BME280;4985;49.092;8.542;2024-03-29T05:43:44;97408.94;;;16.97;48.97
9893;BME280;4985;49.092;8.542;2024-03-29T05:46:10;97400.97;;;16.97;48.98
9893;BME280;4985;49.092;8.542;2024-03-29T05:48:35;97401.22;;;16.95;48.89
9893;BME280;4985;49.092;8.542;2024-03-29T05:51:00;97408.13;;;16.96;49.40
9893;BME280;4985;49.092;8.542;2024-03-29T05:53:25;97410.78;;;16.96;49.22
9893;BME280;4985;49.092;8.542;2024-03-29T05:55:51;97415.31;;;16.96;48.94
9893;BME280;4985;49.092;8.542;2024-03-29T05:58:16;97433.91;;;16.96;48.93
9893;BME280;4985;49.092;8.542;2024-03-29T06:00:44;97421.69;;;16.95;48.82
9893;BME280;4985;49.092;8.542;2024-03-29T06:03:09;97421.69;;;16.95;48.93
9893;BME280;4985;49.092;8.542;2024-03-29T06:05:34;97428.59;;;16.96;48.98
9893;BME280;4985;49.092;8.542;2024-03-29T06:08:00;97436.81;;;16.94;49.02
9893;BME280;4985;49.092;8.542;2024-03-29T06:10:25;97445.59;;;16.95;49.02
9893;BME280;4985;49.092;8.542;2024-03-29T06:12:50;97448.25;;;16.95;49.17
9893;BME280;4985;49.092;8.542;2024-03-29T06:15:16;97453.56;;;16.95;48.89
9893;BME280;4985;49.092;8.542;2024-03-29T06:18:00;97454.63;;;16.94;48.83
9893;BME280;4985;49.092;8.542;2024-03-29T06:20:25;97454.63;;;16.94;49.15
9893;BME280;4985;49.092;8.542;2024-03-29T06:22:50;97453.56;;;16.95;48.86
9893;BME280;4985;49.092;8.542;2024-03-29T06:25:16;97458.88;;;16.95;48.89
9893;BME280;4985;49.092;8.542;2024-03-29T06:27:41;97459.94;;;16.94;49.18
9893;BME280;4985;49.092;8.542;2024-03-29T06:30:13;97437.63;;;16.95;48.92
9893;BME280;4985;49.092;8.542;2024-03-29T06:32:39;97443.75;;;16.95;49.09
9893;BME280;4985;49.092;8.542;2024-03-29T06:35:05;97438.16;;;16.97;49.08
9893;BME280;4985;49.092;8.542;2024-03-29T06:37:31;97444.53;;;16.96;49.10
9893;BME280;4985;49.092;8.542;2024-03-29T06:39:56;97427.78;;;16.95;49.05
9893;BME280;4985;49.092;8.542;2024-03-29T06:42:21;97417.16;;;16.95;49.02
9893;BME280;4985;49.092;8.542;2024-03-29T06:44:47;97414.50;;;16.95;48.83
9893;BME280;4985;49.092;8.542;2024-03-29T06:47:12;97411.84;;;16.95;48.97
9893;BME280;4985;49.092;8.542;2024-03-29T06:49:38;97411.84;;;16.95;49.07
9893;BME280;4985;49.092;8.542;2024-03-29T06:52:04;97408.38;;;16.95;49.18
9893;BME280;4985;49.092;8.542;2024-03-29T06:54:30;97419.81;;;16.95;48.98
9893;BME280;4985;49.092;8.542;2024-03-29T06:56:55;97416.38;;;16.95;49.28
9893;BME280;4985;49.092;8.542;2024-03-29T06:59:22;97415.56;;;16.94;49.16
9893;BME280;4985;49.092;8.542;2024-03-29T07:01:48;97404.94;;;16.94;49.12
9893;BME280;4985;49.092;8.542;2024-03-29T07:04:19;97409.44;;;16.94;48.98
9893;BME280;4985;49.092;8.542;2024-03-29T07:06:46;97403.31;;;16.93;49.05
9893;BME280;4985;49.092;8.542;2024-03-29T07:09:13;97393.50;;;16.94;49.30
9893;BME280;4985;49.092;8.542;2024-03-29T07:11:39;97401.47;;;16.94;49.09
9893;BME280;4985;49.092;8.542;2024-03-29T07:14:04;97400.66;;;16.93;49.04
9893;BME280;4985;49.092;8.542;2024-03-29T07:16:30;97404.13;;;16.94;49.21
9893;BME280;4985;49.092;8.542;2024-03-29T07:18:55;97416.38;;;16.95;49.33
9893;BME280;4985;49.092;8.542;2024-03-29T07:21:21;97416.38;;;16.95;49.05
9893;BME280;4985;49.092;8.542;2024-03-29T07:23:46;97432.31;;;16.95;48.91
9893;BME280;4985;49.092;8.542;2024-03-29T07:26:12;97444.53;;;16.96;48.88
9893;BME280;4985;49.092;8.542;2024-03-29T07:28:38;97449.84;;;16.96;48.79
9893;BME280;4985;49.092;8.542;2024-03-29T07:31:07;97459.69;;;16.95;48.96
9893;BME280;4985;49.092;8.542;2024-03-29T07:33:33;97471.13;;;16.96;48.90
9893;BME280;4985;49.092;8.542;2024-03-29T07:35:59;97476.44;;;16.96;48.96
9893;BME280;4985;49.092;8.542;2024-03-29T07:38:24;97487.06;;;16.96;48.63
9893;BME280;4985;49.092;8.542;2024-03-29T07:40:50;97484.41;;;16.96;48.35
9893;BME280;4985;49.092;8.542;2024-03-29T07:43:16;97488.91;;;16.95;48.54
9893;BME280;4985;49.092;8.542;2024-03-29T07:45:42;97504.06;;;16.95;48.42
9893;BME280;4985;49.092;8.542;2024-03-29T07:48:15;97512.03;;;16.95;48.55
9893;BME280;4985;49.092;8.542;2024-03-29T07:50:44;97493.44;;;16.95;48.42
9893;BME280;4985;49.092;8.542;2024-03-29T07:53:10;97489.72;;;16.96;48.16
9893;BME280;4985;49.092;8.542;2024-03-29T07:55:37;97472.97;;;16.95;48.63
9893;BME280;4985;49.092;8.542;2024-03-29T07:58:03;97481.75;;;16.96;48.41
9893;BME280;4985;49.092;8.542;2024-03-29T08:00:31;97482.56;;;16.96;48.87
9893;BME280;4985;49.092;8.542;2024-03-29T08:02:57;97505.66;;;16.96;48.86
9893;BME280;4985;49.092;8.542;2024-03-29T08:05:22;97499.31;;;16.97;48.82
9893;BME280;4985;49.092;8.542;2024-03-29T08:07:48;97507.53;;;16.95;49.03
9893;BME280;4985;49.092;8.542;2024-03-29T08:10:13;97522.41;;;16.96;48.97
9893;BME280;4985;49.092;8.542;2024-03-29T08:12:38;97526.94;;;16.96;48.78
9893;BME280;4985;49.092;8.542;2024-03-29T08:15:04;97519.75;;;16.96;48.63
9893;BME280;4985;49.092;8.542;2024-03-29T08:17:30;97523.47;;;16.95;48.79
9893;BME280;4985;49.092;8.542;2024-03-29T08:19:55;97541.81;;;16.97;48.62
9893;BME280;4985;49.092;8.542;2024-03-29T08:22:20;97544.47;;;16.97;48.99
9893;BME280;4985;49.092;8.542;2024-03-29T08:24:46;97544.47;;;16.97;48.96
9893;BME280;4985;49.092;8.542;2024-03-29T08:27:11;97552.47;;;16.97;48.99
9893;BME280;4985;49.092;8.542;2024-03-29T08:29:36;97558.56;;;16.97;48.84
9893;BME280;4985;49.092;8.542;2024-03-29T08:32:02;97563.91;;;16.97;48.78
9893;BME280;4985;49.092;8.542;2024-03-29T08:34:28;97568.41;;;16.97;49.05
9893;BME280;4985;49.092;8.542;2024-03-29T08:36:59;97572.66;;;16.98;48.88
9893;BME280;4985;49.092;8.542;2024-03-29T08:39:25;97577.75;;;16.99;49.22
9893;BME280;4985;49.092;8.542;2024-03-29T08:41:50;97594.72;;;16.98;48.92
9893;BME280;4985;49.092;8.542;2024-03-29T08:44:15;97599.25;;;16.98;49.24
9893;BME280;4985;49.092;8.542;2024-03-29T08:46:41;97606.16;;;16.99;49.12
9893;BME280;4985;49.092;8.542;2024-03-29T08:49:06;97608.03;;;16.98;49.19
9893;BME280;4985;49.092;8.542;2024-03-29T08:51:31;97603.50;;;16.99;49.13
9893;BME280;4985;49.092;8.542;2024-03-29T08:53:57;97610.47;;;17.00;49.09
9893;BME280;4985;49.092;8.542;2024-03-29T08:56:23;97621.09;;;17.00;49.22
9893;BME280;4985;49.092;8.542;2024-03-29T08:58:48;97615.78;;;17.00;48.95
9893;BME280;4985;49.092;8.542;2024-03-29T09:01:15;97618.44;;;17.00;49.24
9893;BME280;4985;49.092;8.542;2024-03-29T09:03:40;97621.09;;;17.00;49.01
9893;BME280;4985;49.092;8.542;2024-03-29T09:06:05;97621.09;;;17.00;49.26
9893;BME280;4985;49.092;8.542;2024-03-29T09:08:31;97625.59;;;16.99;48.80
9893;BME280;4985;49.092;8.542;2024-03-29T09:10:56;97608.03;;;16.98;49.24
9893;BME280;4985;49.092;8.542;2024-03-29T09:13:21;97609.88;;;16.98;49.08
9893;BME280;4985;49.092;8.542;2024-03-29T09:15:47;97620.50;;;16.98;49.37
9893;BME280;4985;49.092;8.542;2024-03-29T09:18:14;97617.84;;;16.98;49.17
9893;BME280;4985;49.092;8.542;2024-03-29T09:20:55;97616.00;;;16.98;49.04
9893;BME280;4985;49.092;8.542;2024-03-29T09:23:21;97617.84;;;16.98;49.22
9893;BME280;4985;49.092;8.542;2024-03-29T09:25:48;97621.31;;;16.98;49.41
9893;BME280;4985;49.092;8.542;2024-03-29T09:28:13;97628.25;;;16.99;49.00
9893;BME280;4985;49.092;8.542;2024-03-29T09:30:39;97630.09;;;16.99;49.36
9893;BME280;4985;49.092;8.542;2024-03-29T09:33:04;97639.91;;;16.98;49.38
9893;BME280;4985;49.092;8.542;2024-03-29T09:35:32;97652.19;;;16.99;49.32
9893;BME280;4985;49.092;8.542;2024-03-29T09:37:57;97650.34;;;17.00;49.19
9893;BME280;4985;49.092;8.542;2024-03-29T09:40:24;97656.66;;;16.99;49.47
9893;BME280;4985;49.092;8.542;2024-03-29T09:42:50;97643.97;;;17.01;49.27
9893;BME280;4985;49.092;8.542;2024-03-29T09:45:16;97646.88;;;16.99;49.58
9893;BME280;4985;49.092;8.542;2024-03-29T09:47:43;97637.03;;;17.00;49.26
9893;BME280;4985;49.092;8.542;2024-03-29T09:50:09;97632.53;;;17.00;49.47
9893;BME280;4985;49.092;8.542;2024-03-29T09:52:34;97621.91;;;17.00;49.55
9893;BME280;4985;49.092;8.542;2024-03-29T09:55:00;97621.91;;;17.00;49.16
9893;BME280;4985;49.092;8.542;2024-03-29T09:57:27;97636.00;;;17.01;49.37
9893;BME280;4985;49.092;8.542;2024-03-29T09:59:57;97624.31;;;17.02;49.44
9893;BME280;4985;49.092;8.542;2024-03-29T10:02:27;97621.09;;;17.00;49.53
9893;BME280;4985;49.092;8.542;2024-03-29T10:04:53;97622.69;;;17.01;49.79
9893;BME280;4985;49.092;8.542;2024-03-29T10:07:21;97615.53;;;17.01;49.55
9893;BME280;4985;49.092;8.542;2024-03-29T10:09:47;97608.34;;;17.02;49.63
9893;BME280;4985;49.092;8.542;2024-03-29T10:12:12;97598.78;;;17.01;49.62
9893;BME280;4985;49.092;8.542;2024-03-29T10:14:47;97599.34;;;17.03;49.98
9893;BME280;4985;49.092;8.542;2024-03-29T10:17:20;97605.94;;;17.00;49.83
9893;BME280;4985;49.092;8.542;2024-03-29T10:19:46;97596.13;;;17.01;49.97
9893;BME280;4985;49.092;8.542;2024-03-29T10:22:12;97590.81;;;17.01;49.86
9893;BME280;4985;49.092;8.542;2024-03-29T10:24:38;97596.13;;;17.01;49.91
9893;BME280;4985;49.092;8.542;2024-03-29T10:27:04;97591.34;;;17.03;49.95
9893;BME280;4985;49.092;8.542;2024-03-29T10:29:29;97588.69;;;17.03;49.85
9893;BME280;4985;49.092;8.542;2024-03-29T10:31:55;97579.66;;;17.04;49.66
9893;BME280;4985;49.092;8.542;2024-03-29T10:34:21;97588.69;;;17.03;50.01
9893;BME280;4985;49.092;8.542;2024-03-29T10:36:47;97574.34;;;17.04;50.19
9893;BME280;4985;49.092;8.542;2024-03-29T10:39:12;97563.72;;;17.04;50.01
9893;BME280;4985;49.092;8.542;2024-03-29T10:41:44;97554.69;;;17.05;49.96
9893;BME280;4985;49.092;8.542;2024-03-29T10:44:12;97549.38;;;17.05;49.81
9893;BME280;4985;49.092;8.542;2024-03-29T10:46:38;97544.06;;;17.05;49.79
9893;BME280;4985;49.092;8.542;2024-03-29T10:49:10;97538.75;;;17.05;50.05
9893;BME280;4985;49.092;8.542;2024-03-29T10:51:40;97527.31;;;17.04;50.19
9893;BME280;4985;49.092;8.542;2024-03-29T10:54:10;97528.91;;;17.05;50.23
9893;BME280;4985;49.092;8.542;2024-03-29T10:56:36;97522.56;;;17.06;50.31
9893;BME280;4985;49.092;8.542;2024-03-29T10:59:16;97520.69;;;17.07;50.31
9893;BME280;4985;49.092;8.542;2024-03-29T11:01:44;97526.00;;;17.07;50.38
9893;BME280;4985;49.092;8.542;2024-03-29T11:04:21;97515.38;;;17.07;50.57
9893;BME280;4985;49.092;8.542;2024-03-29T11:06:50;97510.59;;;17.09;50.51
9893;BME280;4985;49.092;8.542;2024-03-29T11:09:20;97507.94;;;17.09;50.45
9893;BME280;4985;49.092;8.542;2024-03-29T11:11:48;97502.63;;;17.09;50.52
9893;BME280;4985;49.092;8.542;2024-03-29T11:14:20;97507.72;;;17.10;50.30
9893;BME280;4985;49.092;8.542;2024-03-29T11:16:49;97503.22;;;17.11;50.10
9893;BME280;4985;49.092;8.542;2024-03-29T11:19:17;97509.09;;;17.13;50.77
9893;BME280;4985;49.092;8.542;2024-03-29T11:21:43;97517.06;;;17.13;50.63
9893;BME280;4985;49.092;8.542;2024-03-29T11:24:13;97517.84;;;17.13;50.67
9893;BME280;4985;49.092;8.542;2024-03-29T11:26:41;97513.34;;;17.14;50.67
9893;BME280;4985;49.092;8.542;2024-03-29T11:29:18;97516.56;;;17.16;50.81
9893;BME280;4985;49.092;8.542;2024-03-29T11:31:44;97523.72;;;17.15;50.50
9893;BME280;4985;49.092;8.542;2024-03-29T11:34:10;97520.00;;;17.16;50.77
9893;BME280;4985;49.092;8.542;2024-03-29T11:36:39;97525.34;;;17.16;50.68
9893;BME280;4985;49.092;8.542;2024-03-29T11:39:05;97536.78;;;17.17;50.77
9893;BME280;4985;49.092;8.542;2024-03-29T11:41:30;97533.31;;;17.16;50.75
9893;BME280;4985;49.092;8.542;2024-03-29T11:43:57;97531.44;;;17.17;50.80
9893;BME280;4985;49.092;8.542;2024-03-29T11:46:24;97533.84;;;17.18;50.88
9893;BME280;4985;49.092;8.542;2024-03-29T11:48:49;97542.63;;;17.19;50.74
9893;BME280;4985;49.092;8.542;2024-03-29T11:51:18;97549.56;;;17.20;51.08
9893;BME280;4985;49.092;8.542;2024-03-29T11:53:46;97555.94;;;17.19;51.09
9893;BME280;4985;49.092;8.542;2024-03-29T11:56:11;97553.28;;;17.19;50.47
9893;BME280;4985;49.092;8.542;2024-03-29T11:58:37;97559.13;;;17.21;50.29
9893;BME280;4985;49.092;8.542;2024-03-29T12:01:04;97563.44;;;17.22;50.27
9893;BME280;4985;49.092;8.542;2024-03-29T12:03:31;97574.06;;;17.22;50.22
9893;BME280;4985;49.092;8.542;2024-03-29T12:05:57;97586.31;;;17.23;50.26
9893;BME280;4985;49.092;8.542;2024-03-29T12:08:25;97582.59;;;17.24;50.01
9893;BME280;4985;49.092;8.542;2024-03-29T12:10:51;97593.22;;;17.24;49.72
9893;BME280;4985;49.092;8.542;2024-03-29T12:13:17;97592.19;;;17.25;49.57
9893;BME280;4985;49.092;8.542;2024-03-29T12:15:43;97597.50;;;17.25;49.93
9893;BME280;4985;49.092;8.542;2024-03-29T12:18:09;97606.28;;;17.26;49.94
9893;BME280;4985;49.092;8.542;2024-03-29T12:20:35;97597.50;;;17.25;49.47
9893;BME280;4985;49.092;8.542;2024-03-29T12:23:08;97598.31;;;17.26;49.61
9893;BME280;4985;49.092;8.542;2024-03-29T12:25:36;97599.09;;;17.26;49.56
9893;BME280;4985;49.092;8.542;2024-03-29T12:28:02;97622.78;;;17.28;49.49
9893;BME280;4985;49.092;8.542;2024-03-29T12:30:28;97617.47;;;17.28;49.69
9893;BME280;4985;49.092;8.542;2024-03-29T12:33:05;97604.97;;;17.28;49.25
9893;BME280;4985;49.092;8.542;2024-03-29T12:35:32;97596.19;;;17.28;49.21
9893;BME280;4985;49.092;8.542;2024-03-29T12:37:59;97599.66;;;17.28;49.31
9893;BME280;4985;49.092;8.542;2024-03-29T12:40:26;97583.69;;;17.28;49.30
9893;BME280;4985;49.092;8.542;2024-03-29T12:42:53;97593.28;;;17.29;49.57
9893;BME280;4985;49.092;8.542;2024-03-29T12:45:19;97589.56;;;17.30;49.59
9893;BME280;4985;49.092;8.542;2024-03-29T12:47:48;97581.84;;;17.29;49.61
9893;BME280;4985;49.092;8.542;2024-03-29T12:50:27;97582.66;;;17.29;49.62
9893;BME280;4985;49.092;8.542;2024-03-29T12:53:06;97587.16;;;17.29;49.35
9893;BME280;4985;49.092;8.542;2024-03-29T12:55:32;97579.44;;;17.27;49.61
9893;BME280;4985;49.092;8.542;2024-03-29T12:58:01;97591.69;;;17.28;49.50
9893;BME280;4985;49.092;8.542;2024-03-29T13:00:27;97595.13;;;17.29;49.57
9893;BME280;4985;49.092;8.542;2024-03-29T13:02:53;97591.69;;;17.28;49.63
9893;BME280;4985;49.092;8.542;2024-03-29T13:05:18;97587.97;;;17.29;50.01
9893;BME280;4985;49.092;8.542;2024-03-29T13:07:44;97587.97;;;17.29;49.65
9893;BME280;4985;49.092;8.542;2024-03-29T13:10:09;97582.66;;;17.29;50.01
9893;BME280;4985;49.092;8.542;2024-03-29T13:12:45;97574.66;;;17.29;50.06
9893;BME280;4985;49.092;8.542;2024-03-29T13:15:20;97572.00;;;17.29;49.95
9893;BME280;4985;49.092;8.542;2024-03-29T13:17:47;97592.22;;;17.30;50.00
9893;BME280;4985;49.092;8.542;2024-03-29T13:20:13;97594.88;;;17.30;49.88